Time;durP1;ratioP1;P1;durP2;ratioP2;P2;SDS_P1;SDS_P2;PMS_P1;PMS_P2;Temp;Humidity;BMP_temperature;BMP_pressure;BME280_temperature;BME280_humidity;BME280_pressure;Samples;Min_cycle;Max_cycle;Signal;HPM_P1;HPM_P2
2023/12/17 00:00:24;;;;;;;20.90;14.27;;;8.40;99.90;;;;;;4940579;29;20602;-62
2023/12/17 00:02:51;;;;;;;19.70;14.53;;;8.40;99.90;;;;;;4939610;29;20451;-62
2023/12/17 00:05:17;;;;;;;18.47;13.70;;;8.40;99.90;;;;;;4938394;29;20451;-62
2023/12/17 00:07:44;;;;;;;22.70;13.60;;;8.40;99.90;;;;;;4936842;29;20448;-63
2023/12/17 00:10:10;;;;;;;23.43;14.30;;;8.40;99.90;;;;;;4942200;29;20466;-61
2023/12/17 00:12:37;;;;;;;24.13;15.00;;;8.40;99.90;;;;;;4939038;29;20451;-63
2023/12/17 00:15:04;;;;;;;20.73;14.00;;;8.40;99.90;;;;;;4937660;29;20452;-62
2023/12/17 00:17:31;;;;;;;19.77;14.97;;;8.40;99.90;;;;;;4939249;29;20443;-63
2023/12/17 00:19:58;;;;;;;17.83;13.87;;;8.40;99.90;;;;;;4935560;29;20479;-63
2023/12/17 00:22:24;;;;;;;20.10;14.00;;;8.40;99.90;;;;;;4935658;29;20514;-64
2023/12/17 00:24:51;;;;;;;20.70;15.47;;;8.40;99.90;;;;;;4936129;29;20518;-63
2023/12/17 00:27:18;;;;;;;24.33;14.23;;;8.40;99.90;;;;;;4935709;29;20435;-62
2023/12/17 00:29:44;;;;;;;22.30;14.23;;;8.40;99.90;;;;;;4935490;29;20527;-63
2023/12/17 00:32:11;;;;;;;23.80;15.73;;;8.40;99.90;;;;;;4935504;29;20826;-61
2023/12/17 00:34:39;;;;;;;19.17;14.13;;;8.40;99.90;;;;;;4935032;29;20443;-63
2023/12/17 00:37:05;;;;;;;19.00;13.60;;;8.40;99.90;;;;;;4937570;29;20448;-62
2023/12/17 00:39:32;;;;;;;20.63;14.60;;;8.40;99.90;;;;;;4935433;29;21024;-62
2023/12/17 00:41:58;;;;;;;20.37;16.00;;;8.40;99.90;;;;;;4937420;29;20570;-63
2023/12/17 00:44:25;;;;;;;21.47;16.00;;;8.40;99.90;;;;;;4940047;29;20444;-63
2023/12/17 00:46:52;;;;;;;20.83;14.33;;;8.40;99.90;;;;;;4937921;29;20850;-63
2023/12/17 00:49:18;;;;;;;18.97;14.77;;;8.40;99.90;;;;;;4936999;29;20472;-62
2023/12/17 00:51:46;;;;;;;17.27;13.50;;;8.40;99.90;;;;;;4937406;29;20443;-63
2023/12/17 00:54:13;;;;;;;19.87;15.33;;;8.40;99.90;;;;;;4935091;29;20452;-64
2023/12/17 00:56:39;;;;;;;19.47;16.10;;;8.40;99.90;;;;;;4935051;29;20453;-63
2023/12/17 00:59:06;;;;;;;18.87;15.43;;;8.40;99.90;;;;;;4935236;29;20499;-62
2023/12/17 01:01:32;;;;;;;25.93;15.83;;;8.40;99.90;;;;;;4935415;29;20531;-63
2023/12/17 01:03:59;;;;;;;20.57;15.47;;;8.40;99.90;;;;;;4934907;29;20455;-63
2023/12/17 01:06:25;;;;;;;22.63;15.73;;;8.40;99.90;;;;;;4934901;29;20507;-63
2023/12/17 01:08:53;;;;;;;20.70;14.93;;;8.40;99.90;;;;;;4935062;29;20528;-62
2023/12/17 01:11:20;;;;;;;26.23;17.13;;;8.50;99.90;;;;;;4934826;29;20443;-63
2023/12/17 01:13:46;;;;;;;21.30;15.27;;;8.40;99.90;;;;;;4934891;29;20471;-63
2023/12/17 01:16:13;;;;;;;18.43;14.70;;;8.40;99.90;;;;;;4934888;29;20495;-63
2023/12/17 01:18:39;;;;;;;28.13;16.97;;;8.40;99.90;;;;;;4934843;29;20467;-63
2023/12/17 01:21:06;;;;;;;23.27;15.77;;;8.50;98.90;;;;;;4934724;29;20546;-63
2023/12/17 01:23:33;;;;;;;20.67;15.60;;;8.50;99.90;;;;;;4934838;29;20451;-63
2023/12/17 01:26:01;;;;;;;19.50;14.47;;;8.50;99.90;;;;;;4934529;29;21002;-63
2023/12/17 01:28:27;;;;;;;21.33;15.67;;;8.50;99.90;;;;;;4934437;29;20447;-63
2023/12/17 01:30:54;;;;;;;21.23;15.60;;;8.50;99.90;;;;;;4934402;29;20815;-63
2023/12/17 01:33:21;;;;;;;20.03;14.67;;;8.50;99.90;;;;;;4937057;29;21028;-63
2023/12/17 01:35:47;;;;;;;20.23;15.30;;;8.50;99.90;;;;;;4934441;29;21185;-62
2023/12/17 01:38:14;;;;;;;19.50;16.10;;;8.50;99.90;;;;;;4934488;29;20456;-62
2023/12/17 01:40:40;;;;;;;26.73;15.27;;;8.50;99.90;;;;;;4934476;29;20488;-62
2023/12/17 01:43:09;;;;;;;17.00;14.63;;;8.50;99.90;;;;;;4934405;29;20506;-62
2023/12/17 01:45:36;;;;;;;20.67;14.87;;;8.50;99.90;;;;;;4934075;29;20506;-62
2023/12/17 01:48:04;;;;;;;20.03;14.37;;;8.60;99.90;;;;;;4934506;29;20542;-63
2023/12/17 01:50:30;;;;;;;24.53;15.70;;;8.50;99.90;;;;;;4939965;29;20843;-63
2023/12/17 01:52:57;;;;;;;20.37;14.70;;;8.60;99.90;;;;;;4938360;29;20451;-61
2023/12/17 01:55:25;;;;;;;18.43;13.33;;;8.60;99.90;;;;;;4930090;29;20567;-63
2023/12/17 01:57:51;;;;;;;20.57;14.73;;;8.60;99.90;;;;;;4942855;29;20496;-63
2023/12/17 02:00:20;;;;;;;14.70;13.20;;;8.50;99.90;;;;;;4940609;29;20463;-62
2023/12/17 02:02:48;;;;;;;18.00;12.73;;;8.60;99.90;;;;;;4939887;29;20956;-62
2023/12/17 02:05:15;;;;;;;20.73;15.27;;;8.60;99.90;;;;;;4936434;29;21044;-62
2023/12/17 02:07:42;;;;;;;24.40;14.23;;;8.60;99.90;;;;;;4939034;29;20447;-62
2023/12/17 02:10:09;;;;;;;18.60;14.57;;;8.60;99.90;;;;;;4938261;29;20829;-63
2023/12/17 02:12:35;;;;;;;15.87;13.10;;;8.60;99.90;;;;;;4938361;29;20855;-62
2023/12/17 02:15:02;;;;;;;17.40;14.27;;;8.60;99.90;;;;;;4937954;29;20522;-63
2023/12/17 02:17:31;;;;;;;17.00;14.00;;;8.60;99.90;;;;;;4938029;29;20439;-61
2023/12/17 02:19:58;;;;;;;28.40;13.87;;;8.60;99.90;;;;;;4937851;29;20529;-63
2023/12/17 02:22:26;;;;;;;20.50;14.50;;;8.60;99.90;;;;;;4938222;29;20561;-63
2023/12/17 02:24:55;;;;;;;23.40;13.20;;;8.60;99.90;;;;;;4937973;29;20452;-62
2023/12/17 02:27:22;;;;;;;15.77;13.60;;;8.60;99.90;;;;;;4937784;29;20451;-62
2023/12/17 02:29:48;;;;;;;19.00;14.93;;;8.60;99.90;;;;;;4937586;29;20989;-62
2023/12/17 02:32:16;;;;;;;15.10;13.00;;;8.70;99.90;;;;;;4937640;29;20450;-62
2023/12/17 02:34:43;;;;;;;14.07;12.47;;;8.60;99.90;;;;;;4938330;28;20459;-62
2023/12/17 02:37:10;;;;;;;20.47;13.00;;;8.70;99.90;;;;;;4944385;29;20588;-62
2023/12/17 02:39:36;;;;;;;15.47;13.00;;;8.70;99.90;;;;;;4940643;29;20462;-63
2023/12/17 02:42:05;;;;;;;14.77;12.73;;;8.70;99.90;;;;;;4940126;29;20487;-62
2023/12/17 02:44:31;;;;;;;17.43;13.40;;;8.70;99.90;;;;;;4937489;29;20870;-62
2023/12/17 02:46:58;;;;;;;24.13;13.67;;;8.70;99.90;;;;;;4939282;29;20451;-61
2023/12/17 02:49:25;;;;;;;15.33;12.80;;;8.70;99.90;;;;;;4941290;29;20505;-63
2023/12/17 02:51:52;;;;;;;16.40;13.50;;;8.70;99.50;;;;;;4938955;29;20475;-63
2023/12/17 02:54:19;;;;;;;19.67;14.50;;;8.60;97.70;;;;;;4939052;29;20455;-63
2023/12/17 02:56:46;;;;;;;19.27;13.67;;;8.60;93.20;;;;;;4938536;29;20443;-62
2023/12/17 02:59:15;;;;;;;16.47;13.20;;;8.60;92.80;;;;;;4937847;29;20471;-63
2023/12/17 03:01:42;;;;;;;16.63;12.90;;;8.60;90.70;;;;;;4936995;29;20997;-63
2023/12/17 03:04:09;;;;;;;15.37;13.07;;;8.60;86.60;;;;;;4937107;29;20455;-64
2023/12/17 03:06:36;;;;;;;23.13;14.37;;;8.60;83.20;;;;;;4930539;29;20937;-63
2023/12/17 03:09:03;;;;;;;18.27;14.10;;;8.60;82.90;;;;;;4937149;29;20522;-61
2023/12/17 03:11:30;;;;;;;16.87;13.23;;;8.60;81.60;;;;;;4937165;29;20506;-62
2023/12/17 03:13:56;;;;;;;15.70;13.60;;;8.60;78.30;;;;;;4941953;29;20446;-62
2023/12/17 03:16:26;;;;;;;17.07;11.87;;;8.60;74.60;;;;;;4944518;29;20855;-63
2023/12/17 03:18:52;;;;;;;15.77;13.43;;;8.60;74.40;;;;;;4945097;28;20462;-63
2023/12/17 03:21:19;;;;;;;13.47;11.60;;;8.50;73.20;;;;;;4940893;29;20499;-63
2023/12/17 03:23:46;;;;;;;15.47;13.80;;;8.50;69.70;;;;;;4943415;29;20506;-63
2023/12/17 03:26:13;;;;;;;16.00;13.80;;;8.60;68.40;;;;;;4942232;29;20452;-63
2023/12/17 03:28:39;;;;;;;21.77;13.30;;;8.50;68.00;;;;;;4940737;29;20985;-62
2023/12/17 03:31:06;;;;;;;17.00;12.90;;;8.50;69.00;;;;;;4949746;29;20837;-63
2023/12/17 03:33:34;;;;;;;14.90;12.67;;;8.60;69.70;;;;;;4939487;29;20885;-62
2023/12/17 03:36:00;;;;;;;16.57;12.13;;;8.50;69.90;;;;;;4939160;29;20451;-63
2023/12/17 03:38:27;;;;;;;17.17;13.00;;;8.60;70.30;;;;;;4938141;29;20447;-63
2023/12/17 03:40:53;;;;;;;15.47;12.67;;;8.60;71.20;;;;;;4936537;29;20443;-63
2023/12/17 03:43:20;;;;;;;15.57;12.37;;;8.60;71.30;;;;;;4936322;29;20506;-62
2023/12/17 03:45:47;;;;;;;16.20;13.07;;;8.60;72.20;;;;;;4936107;29;20448;-63
2023/12/17 03:48:13;;;;;;;17.17;11.73;;;8.60;70.40;;;;;;4936804;29;21021;-63
2023/12/17 03:50:41;;;;;;;15.33;11.10;;;8.60;71.90;;;;;;4936486;29;20494;-62
2023/12/17 03:53:10;;;;;;;14.17;11.60;;;8.60;71.50;;;;;;4936241;29;20443;-62
2023/12/17 03:55:37;;;;;;;13.90;12.53;;;8.60;71.90;;;;;;4936212;29;20444;-63
2023/12/17 03:58:03;;;;;;;14.10;11.93;;;8.60;70.90;;;;;;4935900;29;20506;-62
2023/12/17 04:00:30;;;;;;;15.43;12.20;;;8.60;71.90;;;;;;4935828;29;20503;-62
2023/12/17 04:02:57;;;;;;;17.03;11.77;;;8.70;73.60;;;;;;4936365;29;20487;-62
2023/12/17 04:05:24;;;;;;;15.57;13.00;;;8.70;74.40;;;;;;4936325;29;20447;-63
2023/12/17 04:07:53;;;;;;;12.67;10.77;;;8.70;74.00;;;;;;4935910;29;20490;-62
2023/12/17 04:10:19;;;;;;;11.70;10.60;;;8.60;74.50;;;;;;4936555;29;20472;-61
2023/12/17 04:12:46;;;;;;;12.90;11.00;;;8.60;73.60;;;;;;4935865;29;20507;-63
2023/12/17 04:15:14;;;;;;;17.60;12.80;;;8.60;73.50;;;;;;4936055;29;20511;-62
2023/12/17 04:17:40;;;;;;;13.90;11.33;;;8.60;73.40;;;;;;4936376;29;20456;-62
2023/12/17 04:20:08;;;;;;;14.00;12.00;;;8.60;73.20;;;;;;4936042;29;20875;-61
2023/12/17 04:22:35;;;;;;;13.97;11.07;;;8.70;73.00;;;;;;4936302;29;20495;-61
2023/12/17 04:25:03;;;;;;;17.60;13.37;;;8.60;72.80;;;;;;4937276;29;20452;-62
2023/12/17 04:27:30;;;;;;;15.20;11.80;;;8.60;71.40;;;;;;4936901;29;20506;-62
2023/12/17 04:29:56;;;;;;;11.97;10.70;;;8.70;71.40;;;;;;4935115;29;20483;-63
2023/12/17 04:32:23;;;;;;;13.87;11.00;;;8.70;71.90;;;;;;4935756;29;20443;-62
2023/12/17 04:34:50;;;;;;;13.70;12.27;;;8.70;71.70;;;;;;4935282;29;20581;-62
2023/12/17 04:37:16;;;;;;;13.30;11.87;;;8.70;71.90;;;;;;4935552;29;20542;-62
2023/12/17 04:39:43;;;;;;;15.67;11.20;;;8.60;71.30;;;;;;4941319;29;20474;-63
2023/12/17 04:42:11;;;;;;;12.77;11.47;;;8.70;71.00;;;;;;4943969;29;20486;-62
2023/12/17 04:44:38;;;;;;;15.27;11.30;;;8.70;71.80;;;;;;4941173;29;20628;-62
2023/12/17 04:47:05;;;;;;;12.53;10.70;;;8.70;71.90;;;;;;4941736;29;20446;-64
2023/12/17 04:49:31;;;;;;;15.50;10.90;;;8.70;72.40;;;;;;4936363;29;20467;-63
2023/12/17 04:51:58;;;;;;;15.30;12.50;;;8.70;73.60;;;;;;4939044;29;20447;-63
2023/12/17 04:54:25;;;;;;;16.97;11.90;;;8.70;76.20;;;;;;4940690;29;20447;-62
2023/12/17 04:56:54;;;;;;;15.67;11.53;;;8.70;78.40;;;;;;4945658;29;20447;-63
2023/12/17 04:59:22;;;;;;;18.77;13.03;;;8.80;79.20;;;;;;4943618;29;20481;-62
2023/12/17 05:01:49;;;;;;;13.53;11.17;;;8.70;79.60;;;;;;4940711;28;20486;-63
2023/12/17 05:04:16;;;;;;;13.80;11.47;;;8.70;80.30;;;;;;4936110;29;20877;-63
2023/12/17 05:06:43;;;;;;;13.27;11.87;;;8.70;80.50;;;;;;4934725;29;20447;-63
2023/12/17 05:09:10;;;;;;;14.23;11.27;;;8.70;81.00;;;;;;4935017;29;20467;-63
2023/12/17 05:11:37;;;;;;;12.87;10.90;;;8.80;81.30;;;;;;4934979;29;20447;-63
2023/12/17 05:14:03;;;;;;;15.70;10.77;;;8.80;83.10;;;;;;4935038;29;20934;-63
2023/12/17 05:16:31;;;;;;;15.30;11.50;;;8.80;86.20;;;;;;4934907;29;20797;-65
2023/12/17 05:18:58;;;;;;;11.87;10.60;;;8.80;87.10;;;;;;4934772;29;20533;-63
2023/12/17 05:21:24;;;;;;;15.57;11.60;;;8.80;88.20;;;;;;4934472;29;20447;-63
2023/12/17 05:23:51;;;;;;;12.70;10.93;;;8.80;90.10;;;;;;4934952;29;20824;-64
2023/12/17 05:26:17;;;;;;;13.43;11.47;;;8.80;89.60;;;;;;4934597;29;20507;-61
2023/12/17 05:28:44;;;;;;;12.33;10.20;;;8.80;91.70;;;;;;4935090;29;20530;-60
2023/12/17 05:31:11;;;;;;;10.90;9.80;;;8.80;92.80;;;;;;4934971;29;20451;-60
2023/12/17 05:33:38;;;;;;;17.23;10.43;;;8.80;93.20;;;;;;4934448;29;20495;-59
2023/12/17 05:36:06;;;;;;;14.97;11.47;;;8.80;93.40;;;;;;4934056;29;20447;-60
2023/12/17 05:38:32;;;;;;;12.40;11.10;;;8.80;96.30;;;;;;4934588;29;20506;-61
2023/12/17 05:40:59;;;;;;;14.47;10.90;;;8.90;99.20;;;;;;4934290;29;20511;-61
2023/12/17 05:43:25;;;;;;;11.60;10.17;;;8.90;99.90;;;;;;4933851;29;21056;-60
2023/12/17 05:45:52;;;;;;;11.97;10.60;;;8.90;99.90;;;;;;4934381;29;20479;-61
2023/12/17 05:48:18;;;;;;;11.43;10.13;;;8.90;99.90;;;;;;4934601;29;20930;-61
2023/12/17 05:50:47;;;;;;;13.43;9.80;;;8.90;99.90;;;;;;4928989;29;20455;-60
2023/12/17 05:53:14;;;;;;;11.50;10.33;;;8.90;99.90;;;;;;4934086;29;20443;-61
2023/12/17 05:55:41;;;;;;;14.60;11.00;;;8.90;99.90;;;;;;4934078;29;20925;-61
2023/12/17 05:58:08;;;;;;;13.07;9.83;;;8.90;99.90;;;;;;4934038;29;20478;-60
2023/12/17 06:00:34;;;;;;;12.03;9.57;;;9.00;99.90;;;;;;4934254;29;20474;-60
2023/12/17 06:03:01;;;;;;;15.83;11.40;;;8.90;99.90;;;;;;4933932;29;20487;-60
2023/12/17 06:05:27;;;;;;;12.83;10.60;;;8.90;99.90;;;;;;4934703;29;20451;-61
2023/12/17 06:07:55;;;;;;;10.93;9.80;;;9.00;99.90;;;;;;4933753;29;20946;-60
2023/12/17 06:10:22;;;;;;;10.37;9.30;;;9.00;99.90;;;;;;4934131;29;20471;-61
2023/12/17 06:12:48;;;;;;;11.00;9.90;;;8.90;99.90;;;;;;4934294;29;20447;-61
2023/12/17 06:15:15;;;;;;;11.83;10.50;;;8.90;99.90;;;;;;4933880;29;20498;-61
2023/12/17 06:17:42;;;;;;;13.93;11.20;;;8.90;99.90;;;;;;4934040;29;20483;-61
2023/12/17 06:20:10;;;;;;;11.73;10.50;;;9.00;99.90;;;;;;4934262;29;20471;-61
2023/12/17 06:22:36;;;;;;;11.33;10.17;;;9.00;99.90;;;;;;4934301;29;20921;-60
2023/12/17 06:25:05;;;;;;;11.10;9.67;;;8.90;99.90;;;;;;4934153;29;20447;-61
2023/12/17 06:27:34;;;;;;;10.17;9.20;;;8.90;99.90;;;;;;4933991;29;20997;-60
2023/12/17 06:30:00;;;;;;;10.13;9.13;;;9.00;99.90;;;;;;4933900;29;20605;-60
2023/12/17 06:32:27;;;;;;;9.63;8.63;;;8.90;99.90;;;;;;4933774;29;20451;-60
2023/12/17 06:34:54;;;;;;;11.20;10.10;;;8.90;99.90;;;;;;4933799;29;20455;-60
2023/12/17 06:37:20;;;;;;;10.83;9.77;;;8.90;99.90;;;;;;4934229;29;20447;-61
2023/12/17 06:39:47;;;;;;;9.77;8.63;;;9.00;99.90;;;;;;4933966;29;20463;-61
2023/12/17 06:42:15;;;;;;;9.80;8.80;;;8.90;99.90;;;;;;4933665;29;20487;-60
2023/12/17 06:44:41;;;;;;;11.07;8.77;;;8.90;99.90;;;;;;4933682;29;20447;-61
2023/12/17 06:47:08;;;;;;;10.33;8.83;;;8.90;99.90;;;;;;4933861;29;20509;-60
2023/12/17 06:49:37;;;;;;;9.73;8.77;;;9.00;99.90;;;;;;4933840;29;20466;-61
2023/12/17 06:52:04;;;;;;;8.93;8.13;;;9.00;99.90;;;;;;4933896;29;20502;-61
2023/12/17 06:54:31;;;;;;;10.20;8.60;;;8.90;99.90;;;;;;4936899;29;20447;-59
2023/12/17 06:56:57;;;;;;;9.20;8.37;;;9.00;99.90;;;;;;4937333;29;20925;-60
2023/12/17 06:59:25;;;;;;;9.17;8.27;;;8.90;99.90;;;;;;4937082;29;20463;-60
2023/12/17 07:01:52;;;;;;;9.77;8.87;;;9.00;99.90;;;;;;4937645;29;20514;-60
2023/12/17 07:04:18;;;;;;;9.13;8.10;;;9.00;99.90;;;;;;4936884;29;20538;-60
2023/12/17 07:06:46;;;;;;;11.50;8.53;;;9.00;99.90;;;;;;4937039;29;20502;-62
2023/12/17 07:09:13;;;;;;;9.70;8.70;;;9.00;99.90;;;;;;4941049;29;20556;-59
2023/12/17 07:11:40;;;;;;;9.47;8.53;;;8.90;99.90;;;;;;4941089;29;20582;-62
2023/12/17 07:14:07;;;;;;;9.70;8.03;;;9.00;99.90;;;;;;4940838;29;20447;-61
2023/12/17 07:16:36;;;;;;;9.53;8.63;;;9.00;99.90;;;;;;4941744;29;20435;-60
2023/12/17 07:19:03;;;;;;;8.10;7.40;;;9.00;99.90;;;;;;4940644;29;20463;-59
2023/12/17 07:21:30;;;;;;;9.33;7.80;;;9.00;99.90;;;;;;4943261;29;20459;-60
2023/12/17 07:23:57;;;;;;;8.40;7.60;;;9.00;99.90;;;;;;4937096;29;20487;-60
2023/12/17 07:26:24;;;;;;;9.53;7.63;;;9.00;99.90;;;;;;4936598;29;20452;-61
2023/12/17 07:28:50;;;;;;;8.40;7.60;;;9.00;99.90;;;;;;4937161;29;20511;-61
2023/12/17 07:31:17;;;;;;;9.40;8.37;;;9.00;99.90;;;;;;4936975;29;20649;-60
2023/12/17 07:33:45;;;;;;;7.87;7.10;;;9.00;99.90;;;;;;4936758;29;20443;-60
2023/12/17 07:36:11;;;;;;;8.83;8.03;;;9.00;99.90;;;;;;4936492;29;20499;-60
2023/12/17 07:38:38;;;;;;;8.07;7.27;;;9.00;99.90;;;;;;4936386;29;20467;-60
2023/12/17 07:41:05;;;;;;;10.53;8.40;;;9.00;99.90;;;;;;4936377;29;20458;-61
2023/12/17 07:43:32;;;;;;;7.43;6.73;;;9.00;99.90;;;;;;4932222;29;20487;-60
2023/12/17 07:45:58;;;;;;;8.33;7.10;;;9.00;99.90;;;;;;4936693;29;20872;-61
2023/12/17 07:48:25;;;;;;;9.17;7.90;;;9.00;99.90;;;;;;4936267;29;20455;-60
2023/12/17 07:50:54;;;;;;;7.50;6.80;;;9.10;99.90;;;;;;4936330;29;20504;-59
2023/12/17 07:53:21;;;;;;;7.73;7.03;;;9.10;99.90;;;;;;4936157;29;20659;-58
2023/12/17 07:55:48;;;;;;;8.17;7.20;;;9.10;99.90;;;;;;4936133;29;20459;-59
2023/12/17 07:58:15;;;;;;;8.60;7.70;;;9.10;99.90;;;;;;4936056;29;20458;-59
2023/12/17 08:00:41;;;;;;;7.63;6.90;;;9.10;99.90;;;;;;4936223;29;20941;-60
2023/12/17 08:03:08;;;;;;;8.27;6.60;;;9.10;99.90;;;;;;4936807;29;20895;-59
2023/12/17 08:05:35;;;;;;;7.90;7.17;;;9.10;99.90;;;;;;4935616;29;20926;-60
2023/12/17 08:08:03;;;;;;;8.83;8.03;;;9.10;99.90;;;;;;4935627;29;20950;-59
2023/12/17 08:10:30;;;;;;;7.53;6.83;;;9.10;99.90;;;;;;4935706;29;20463;-59
2023/12/17 08:12:57;;;;;;;7.40;6.70;;;9.20;99.90;;;;;;4935925;29;20490;-59
2023/12/17 08:15:23;;;;;;;7.80;7.00;;;9.20;99.90;;;;;;4935807;29;20860;-59
2023/12/17 08:17:50;;;;;;;8.17;7.23;;;9.20;99.90;;;;;;4935956;29;20444;-59
2023/12/17 08:20:17;;;;;;;9.03;6.70;;;9.20;99.90;;;;;;4936279;29;20467;-59
2023/12/17 08:22:44;;;;;;;8.00;6.03;;;9.20;99.90;;;;;;4935713;29;20487;-58
2023/12/17 08:25:12;;;;;;;7.17;6.57;;;9.20;99.90;;;;;;4935478;29;21013;-58
2023/12/17 08:27:38;;;;;;;7.83;7.07;;;9.20;99.90;;;;;;4935736;29;20506;-58
2023/12/17 08:30:06;;;;;;;7.60;6.80;;;9.20;99.90;;;;;;4935559;29;20475;-59
2023/12/17 08:32:33;;;;;;;7.63;6.83;;;9.20;99.90;;;;;;4935493;29;20448;-59
2023/12/17 08:35:00;;;;;;;6.03;5.53;;;9.30;99.90;;;;;;4935604;29;20443;-58
2023/12/17 08:37:27;;;;;;;9.27;6.40;;;9.20;99.90;;;;;;4942438;29;20517;-58
2023/12/17 08:39:53;;;;;;;8.30;6.30;;;9.20;99.90;;;;;;4930533;29;20467;-58
2023/12/17 08:42:22;;;;;;;7.47;6.77;;;9.20;99.90;;;;;;4935301;29;20503;-59
2023/12/17 08:44:50;;;;;;;6.80;6.20;;;9.20;99.90;;;;;;4935201;29;20567;-59
2023/12/17 08:47:17;;;;;;;7.90;6.30;;;9.20;99.90;;;;;;4935148;29;20450;-59
2023/12/17 08:49:43;;;;;;;8.10;6.00;;;9.30;99.90;;;;;;4935296;29;20472;-59
2023/12/17 08:52:10;;;;;;;7.20;5.73;;;9.30;99.90;;;;;;4935110;29;21012;-59
2023/12/17 08:54:36;;;;;;;6.73;6.07;;;9.30;99.90;;;;;;4940505;29;20439;-59
2023/12/17 08:57:03;;;;;;;6.57;6.03;;;9.30;99.90;;;;;;4952496;29;20440;-60
2023/12/17 08:59:31;;;;;;;5.80;5.33;;;9.40;99.90;;;;;;4945885;29;21016;-60
2023/12/17 09:01:58;;;;;;;9.03;6.90;;;9.40;99.90;;;;;;4935440;29;20887;-59
2023/12/17 09:04:24;;;;;;;9.70;5.60;;;9.40;99.90;;;;;;4934415;29;20482;-60
2023/12/17 09:06:51;;;;;;;6.40;5.80;;;9.40;99.90;;;;;;4934843;29;20459;-60
2023/12/17 09:09:17;;;;;;;9.90;6.80;;;9.50;99.90;;;;;;4934898;29;20890;-59
2023/12/17 09:11:44;;;;;;;8.27;6.27;;;9.40;99.90;;;;;;4935482;29;20443;-59
2023/12/17 09:14:11;;;;;;;6.53;5.93;;;9.50;99.90;;;;;;4934640;29;20855;-60
2023/12/17 09:16:38;;;;;;;6.27;5.67;;;9.50;99.90;;;;;;4934788;29;21117;-59
2023/12/17 09:19:05;;;;;;;6.30;5.70;;;9.50;99.90;;;;;;4934685;29;20881;-59
2023/12/17 09:21:32;;;;;;;6.57;6.00;;;9.50;99.90;;;;;;4934692;29;20447;-58
2023/12/17 09:23:58;;;;;;;5.40;4.83;;;9.50;99.90;;;;;;4934644;29;20491;-59
2023/12/17 09:26:25;;;;;;;8.00;6.23;;;9.50;99.90;;;;;;4934628;29;20498;-58
2023/12/17 09:28:51;;;;;;;5.43;4.93;;;9.50;99.90;;;;;;4934912;29;20538;-59
2023/12/17 09:31:18;;;;;;;6.53;6.03;;;9.50;99.90;;;;;;4934396;29;20953;-59
2023/12/17 09:33:46;;;;;;;6.33;5.83;;;9.50;99.90;;;;;;4934505;29;20578;-60
2023/12/17 09:36:13;;;;;;;8.93;7.10;;;9.50;99.90;;;;;;4934377;29;20447;-60
2023/12/17 09:38:42;;;;;;;7.83;6.00;;;9.50;99.90;;;;;;4934494;29;20558;-59
2023/12/17 09:41:09;;;;;;;5.80;5.33;;;9.50;99.90;;;;;;4934651;29;20479;-59
2023/12/17 09:43:35;;;;;;;8.23;6.00;;;9.50;99.90;;;;;;4934429;29;20483;-59
2023/12/17 09:46:02;;;;;;;5.80;5.30;;;9.60;99.90;;;;;;4934683;29;20498;-58
2023/12/17 09:48:29;;;;;;;6.27;5.67;;;9.50;99.90;;;;;;4934399;29;20506;-60
2023/12/17 09:50:57;;;;;;;6.73;6.13;;;9.60;99.90;;;;;;4934685;29;20554;-58
2023/12/17 09:53:24;;;;;;;6.60;6.07;;;9.60;99.90;;;;;;4934265;29;20793;-59
2023/12/17 09:55:50;;;;;;;7.53;6.37;;;9.60;99.90;;;;;;4934264;29;20450;-58
2023/12/17 09:58:17;;;;;;;6.57;5.90;;;9.60;99.90;;;;;;4934053;29;20447;-59
2023/12/17 10:00:44;;;;;;;7.30;6.70;;;9.60;99.90;;;;;;4934061;29;20443;-60
2023/12/17 10:03:14;;;;;;;8.27;6.93;;;9.60;99.90;;;;;;4934781;29;20455;-58
2023/12/17 10:05:41;;;;;;;8.83;6.40;;;9.60;99.90;;;;;;4934155;29;20439;-59
2023/12/17 10:08:09;;;;;;;6.97;6.40;;;9.60;99.90;;;;;;4934507;29;20451;-59
2023/12/17 10:10:35;;;;;;;5.40;4.97;;;9.70;99.90;;;;;;4934104;29;20459;-58
2023/12/17 10:13:03;;;;;;;6.33;5.73;;;9.60;99.90;;;;;;4933989;29;20455;-59
2023/12/17 10:15:35;;;;;;;6.67;6.07;;;9.70;99.90;;;;;;4933952;29;20463;-59
2023/12/17 10:18:02;;;;;;;7.43;6.73;;;9.70;99.90;;;;;;4934115;29;20458;-59
2023/12/17 10:20:28;;;;;;;6.13;5.63;;;9.70;99.90;;;;;;4934295;29;20519;-58
2023/12/17 10:22:59;;;;;;;6.10;5.63;;;9.70;99.90;;;;;;4933991;29;20479;-59
2023/12/17 10:25:28;;;;;;;8.07;5.97;;;9.60;99.90;;;;;;4933868;29;20506;-59
2023/12/17 10:27:56;;;;;;;7.30;6.67;;;9.70;99.90;;;;;;4934510;29;20510;-60
2023/12/17 10:30:26;;;;;;;7.43;6.17;;;9.70;99.90;;;;;;4937712;29;20500;-59
2023/12/17 10:32:53;;;;;;;7.03;6.40;;;9.70;99.90;;;;;;4937825;29;20447;-60
2023/12/17 10:35:22;;;;;;;6.10;5.60;;;9.70;99.90;;;;;;4937929;29;20451;-59
2023/12/17 10:37:50;;;;;;;7.10;6.40;;;9.80;99.90;;;;;;4937690;29;20865;-59
2023/12/17 10:40:17;;;;;;;8.73;7.50;;;9.80;99.90;;;;;;4937355;29;20964;-59
2023/12/17 10:42:47;;;;;;;7.20;6.47;;;9.80;99.90;;;;;;4937707;29;20821;-59
2023/12/17 10:45:16;;;;;;;6.47;5.83;;;9.80;99.90;;;;;;4937544;29;20514;-59
2023/12/17 10:47:42;;;;;;;6.67;6.13;;;9.80;99.90;;;;;;4937873;29;20448;-58
2023/12/17 10:50:11;;;;;;;8.50;6.57;;;9.80;99.90;;;;;;4937495;29;20471;-59
2023/12/17 10:52:38;;;;;;;7.03;6.43;;;9.90;99.90;;;;;;4937653;29;20514;-58
2023/12/17 10:55:06;;;;;;;6.60;6.10;;;9.90;99.90;;;;;;4937579;29;20439;-58
2023/12/17 10:57:35;;;;;;;7.83;7.13;;;9.90;99.90;;;;;;4937265;29;20451;-58
2023/12/17 11:00:05;;;;;;;7.07;6.43;;;9.80;99.90;;;;;;4943800;29;20471;-59
2023/12/17 11:02:32;;;;;;;7.23;6.53;;;9.80;99.90;;;;;;4937199;29;20498;-58
2023/12/17 11:04:59;;;;;;;7.43;6.73;;;9.80;99.90;;;;;;4936817;29;20482;-59
2023/12/17 11:07:26;;;;;;;6.70;6.20;;;9.90;99.90;;;;;;4936651;29;20930;-59
2023/12/17 11:09:54;;;;;;;7.00;6.40;;;9.90;99.90;;;;;;4940351;29;20466;-59
2023/12/17 11:12:21;;;;;;;6.47;5.90;;;9.90;99.90;;;;;;4937170;29;20482;-58
2023/12/17 11:14:48;;;;;;;7.33;6.63;;;9.90;99.90;;;;;;4936984;29;20443;-59
2023/12/17 11:17:17;;;;;;;7.17;6.60;;;9.80;99.90;;;;;;4936775;29;20819;-59
2023/12/17 11:19:57;;;;;;;7.23;6.53;;;9.90;99.90;;;;;;4936695;29;20467;-59
2023/12/17 11:22:25;;;;;;;7.03;6.43;;;9.90;99.90;;;;;;4937093;29;20530;-58
2023/12/17 11:24:54;;;;;;;6.40;5.80;;;9.90;99.90;;;;;;4936864;29;20931;-59
2023/12/17 11:27:22;;;;;;;7.30;6.70;;;9.90;99.90;;;;;;4939631;29;20452;-59
2023/12/17 11:29:50;;;;;;;7.73;7.03;;;9.90;99.90;;;;;;4937140;29;20483;-60
2023/12/17 11:32:19;;;;;;;7.60;6.53;;;9.90;99.90;;;;;;4936448;29;20454;-59
2023/12/17 11:34:49;;;;;;;8.77;6.50;;;9.90;99.90;;;;;;4936370;29;20817;-60
2023/12/17 11:37:18;;;;;;;6.83;6.17;;;10.00;99.90;;;;;;4936622;29;20447;-60
2023/12/17 11:39:46;;;;;;;6.63;6.03;;;9.90;99.90;;;;;;4935388;29;20463;-60
2023/12/17 11:42:13;;;;;;;8.40;7.60;;;10.00;99.90;;;;;;4936509;29;20448;-59
2023/12/17 11:44:43;;;;;;;8.43;7.67;;;10.00;99.90;;;;;;4939717;29;20929;-60
2023/12/17 11:47:10;;;;;;;6.80;6.20;;;10.00;99.90;;;;;;4936559;29;20830;-60
2023/12/17 11:49:38;;;;;;;7.10;6.50;;;10.00;99.90;;;;;;4936295;29;20463;-60
2023/12/17 11:52:11;;;;;;;6.23;5.73;;;10.10;85.40;;;;;;4936573;29;20454;-60
2023/12/17 11:54:37;;;;;;;6.60;6.00;;;10.10;99.90;;;;;;4936153;29;20495;-59
2023/12/17 11:57:04;;;;;;;6.90;6.40;;;10.10;99.90;;;;;;4935876;29;20518;-60
2023/12/17 11:59:34;;;;;;;6.37;5.87;;;10.10;99.90;;;;;;4936268;29;20479;-59
2023/12/17 12:02:02;;;;;;;6.80;6.30;;;10.10;99.90;;;;;;4943910;29;20455;-59
2023/12/17 12:04:40;;;;;;;5.80;5.30;;;10.00;99.90;;;;;;4935949;29;20542;-61
2023/12/17 12:07:08;;;;;;;6.03;5.50;;;10.00;99.90;;;;;;4935975;29;20450;-58
2023/12/17 12:09:35;;;;;;;7.03;6.30;;;10.00;99.90;;;;;;4935943;29;20510;-58
2023/12/17 12:12:01;;;;;;;5.97;5.50;;;10.00;99.90;;;;;;4935884;29;20531;-61
2023/12/17 12:14:28;;;;;;;6.33;5.80;;;9.90;99.90;;;;;;4935847;29;20849;-61
2023/12/17 12:16:55;;;;;;;7.03;6.10;;;10.00;99.90;;;;;;4936021;29;20573;-59
2023/12/17 12:19:22;;;;;;;6.57;5.97;;;10.00;99.90;;;;;;4943278;28;21048;-60
2023/12/17 12:21:51;;;;;;;7.00;5.80;;;9.90;99.90;;;;;;4936380;29;20443;-61
2023/12/17 12:24:20;;;;;;;6.53;6.07;;;9.90;99.90;;;;;;4935484;29;20997;-59
2023/12/17 12:26:47;;;;;;;6.43;5.87;;;10.00;99.90;;;;;;4936095;29;20448;-58
2023/12/17 12:29:13;;;;;;;5.90;5.50;;;10.00;99.90;;;;;;4936168;29;20507;-60
2023/12/17 12:31:51;;;;;;;6.30;5.57;;;10.00;99.90;;;;;;4935952;29;20864;-61
2023/12/17 12:34:17;;;;;;;5.80;5.40;;;9.90;99.90;;;;;;4935468;29;20892;-60
2023/12/17 12:36:46;;;;;;;5.77;5.37;;;9.90;99.90;;;;;;4942828;29;20439;-58
2023/12/17 12:39:15;;;;;;;6.13;5.63;;;9.90;99.90;;;;;;4935837;29;20516;-61
2023/12/17 12:41:45;;;;;;;5.37;4.97;;;9.90;99.90;;;;;;4936162;29;20933;-60
2023/12/17 12:44:13;;;;;;;5.57;5.17;;;9.90;99.90;;;;;;4932736;29;20487;-59